createdAt,value
2019-02-21T00:01:07.490Z,90.15
2019-02-21T00:02:16.390Z,90.18
2019-02-21T00:03:24.262Z,90.32
2019-02-21T00:04:27.072Z,90.32
2019-02-21T00:05:31.783Z,90.30
2019-02-21T00:06:39.182Z,90.40
2019-02-21T00:07:41.554Z,90.40
2019-02-21T00:08:47.548Z,90.65
2019-02-21T00:09:50.463Z,90.35
2019-02-21T00:10:53.742Z,90.53
2019-02-21T00:11:56.557Z,90.10
2019-02-21T00:12:59.396Z,89.86
2019-02-21T00:14:05.397Z,90.17
2019-02-21T00:15:08.350Z,90.01
2019-02-21T00:16:11.176Z,89.94
2019-02-21T00:17:14.010Z,89.86
2019-02-21T00:18:16.844Z,89.64
2019-02-21T00:19:19.662Z,89.50
2019-02-21T00:20:22.853Z,90.16
2019-02-21T00:21:25.642Z,89.53
2019-02-21T00:22:28.472Z,89.53
2019-02-21T00:23:31.694Z,90.11
2019-02-21T00:24:34.500Z,90.31
2019-02-21T00:25:38.565Z,90.31
2019-02-21T00:26:44.101Z,90.10
2019-02-21T00:27:46.201Z,90.20
2019-02-21T00:28:49.001Z,90.35
2019-02-21T00:29:51.807Z,90.32
2019-02-21T00:30:57.440Z,90.93
2019-02-21T00:32:00.326Z,90.93
2019-02-21T00:33:03.428Z,90.66
2019-02-21T00:34:06.252Z,90.69
2019-02-21T00:35:09.082Z,91.11
2019-02-21T00:36:14.970Z,90.75
2019-02-21T00:37:17.844Z,91.26
2019-02-21T00:38:20.650Z,91.02
2019-02-21T00:39:23.777Z,90.98
2019-02-21T00:40:26.608Z,91.21
2019-02-21T00:41:29.454Z,91.36
2019-02-21T00:42:32.321Z,91.36
2019-02-21T00:43:38.338Z,91.32
2019-02-21T00:44:41.157Z,91.62
2019-02-21T00:45:44.284Z,92.37
2019-02-21T00:46:49.417Z,91.95
2019-02-21T00:47:52.288Z,92.11
2019-02-21T00:48:55.055Z,92.55
2019-02-21T00:49:57.882Z,92.14
2019-02-21T00:51:01.585Z,92.14
2019-02-21T00:52:04.821Z,92.34
2019-02-21T00:53:07.706Z,92.80
2019-02-21T00:54:13.847Z,92.80
2019-02-21T00:55:20.581Z,92.19
2019-02-21T00:56:23.842Z,91.87
2019-02-21T00:57:26.724Z,92.53
2019-02-21T00:58:29.875Z,91.57
2019-02-21T00:59:35.151Z,91.57
2019-02-21T01:00:46.230Z,92.36
2019-02-21T01:01:42.416Z,91.79
2019-02-21T01:02:45.267Z,92.05
2019-02-21T01:03:48.675Z,92.20
2019-02-21T01:04:54.824Z,92.23
2019-02-21T01:05:59.610Z,92.23
2019-02-21T01:07:02.524Z,92.66
2019-02-21T01:08:05.747Z,92.66
2019-02-21T01:09:08.645Z,92.32
2019-02-21T01:10:11.435Z,92.03
2019-02-21T01:11:14.655Z,92.58
2019-02-21T01:12:17.499Z,92.30
2019-02-21T01:13:20.343Z,91.72
2019-02-21T01:14:23.280Z,91.72
2019-02-21T01:15:26.089Z,92.37
2019-02-21T01:16:29.931Z,92.37
2019-02-21T01:17:33.025Z,91.48
2019-02-21T01:18:35.829Z,91.76
2019-02-21T01:19:39.161Z,91.76
2019-02-21T01:20:41.960Z,91.17
2019-02-21T01:21:44.776Z,91.35
2019-02-21T01:22:48.086Z,91.16
2019-02-21T01:23:51.182Z,91.16
2019-02-21T01:24:54.126Z,91.52
2019-02-21T01:25:57.039Z,91.52
2019-02-21T01:26:59.985Z,91.48
2019-02-21T01:28:02.983Z,91.58
2019-02-21T01:29:05.789Z,91.39
2019-02-21T01:30:08.995Z,91.39
2019-02-21T01:31:11.856Z,91.49
2019-02-21T01:32:14.691Z,91.62
2019-02-21T01:33:17.547Z,90.87
2019-02-21T01:34:20.367Z,91.03
2019-02-21T01:35:23.632Z,91.03
2019-02-21T01:36:29.583Z,90.31
2019-02-21T01:37:32.412Z,89.52
2019-02-21T01:38:35.250Z,89.77
2019-02-21T01:39:38.049Z,89.77
2019-02-21T01:40:40.940Z,90.27
2019-02-21T01:41:43.752Z,89.73
2019-02-21T01:42:46.849Z,89.97
2019-02-21T01:43:49.752Z,89.97
2019-02-21T01:44:52.578Z,89.68
2019-02-21T01:45:55.379Z,89.68
2019-02-21T01:46:58.275Z,90.19
2019-02-21T01:48:01.101Z,90.63
2019-02-21T01:49:04.286Z,90.87
2019-02-21T01:50:07.121Z,90.66
2019-02-21T01:51:09.920Z,90.66
2019-02-21T01:52:12.799Z,91.01
2019-02-21T01:53:16.046Z,90.94
2019-02-21T01:54:18.947Z,91.28
2019-02-21T01:55:22.102Z,91.65
2019-02-21T01:56:27.113Z,91.32
2019-02-21T01:57:29.984Z,91.38
2019-02-21T01:58:32.773Z,91.89
2019-02-21T01:59:35.683Z,92.07
2019-02-21T02:00:38.496Z,91.36
2019-02-21T02:01:41.622Z,92.31
2019-02-21T02:02:44.414Z,92.21
2019-02-21T02:03:47.211Z,91.91
2019-02-21T02:04:50.137Z,91.91
2019-02-21T02:05:53.018Z,91.95
2019-02-21T02:06:56.325Z,91.61
2019-02-21T02:07:59.457Z,91.86
2019-02-21T02:09:02.325Z,91.83
2019-02-21T02:10:05.229Z,91.26
2019-02-21T02:11:08.054Z,91.48
2019-02-21T02:12:10.915Z,90.83
2019-02-21T02:13:24.090Z,90.75
2019-02-21T02:14:18.230Z,90.87
2019-02-21T02:15:21.124Z,90.87
2019-02-21T02:16:24.452Z,91.06
2019-02-21T02:17:27.330Z,91.00
2019-02-21T02:18:30.113Z,91.00
2019-02-21T02:19:32.893Z,90.62
2019-02-21T02:20:36.489Z,90.62
2019-02-21T02:21:39.295Z,91.40
2019-02-21T02:22:42.587Z,91.62
2019-02-21T02:23:45.448Z,91.67
2019-02-21T02:24:48.313Z,91.87
2019-02-21T02:25:51.132Z,91.50
2019-02-21T02:26:54.229Z,91.52
2019-02-21T02:27:57.102Z,91.93
2019-02-21T02:29:00.404Z,91.94
2019-02-21T02:30:03.224Z,91.56
2019-02-21T02:31:06.071Z,92.41
2019-02-21T02:32:09.797Z,92.15
2019-02-21T02:33:13.099Z,91.63
2019-02-21T02:34:15.921Z,91.83
2019-02-21T02:35:18.700Z,92.33
2019-02-21T02:36:21.525Z,92.27
2019-02-21T02:37:24.330Z,92.54
2019-02-21T02:38:27.509Z,92.30
2019-02-21T02:39:30.928Z,92.21
2019-02-21T02:40:34.130Z,92.21
2019-02-21T02:41:36.940Z,92.16
2019-02-21T02:42:39.730Z,92.10
2019-02-21T02:43:42.497Z,92.06
2019-02-21T02:44:48.160Z,92.06
2019-02-21T02:45:51.298Z,92.06
2019-02-21T02:46:54.097Z,91.90
2019-02-21T02:47:56.893Z,91.88
2019-02-21T02:48:59.739Z,91.90
2019-02-21T02:50:02.650Z,91.98
2019-02-21T02:51:05.617Z,91.78
2019-02-21T02:52:09.148Z,91.88
2019-02-21T02:53:12.047Z,92.07
2019-02-21T02:54:14.829Z,92.39
2019-02-21T02:55:17.709Z,92.94
2019-02-21T02:56:20.940Z,93.01
2019-02-21T02:57:24.126Z,93.01
2019-02-21T02:58:27.204Z,93.01
2019-02-21T02:59:40.403Z,93.20
2019-02-21T03:00:34.518Z,93.15
2019-02-21T03:01:37.363Z,93.40
2019-02-21T03:02:40.225Z,93.36
2019-02-21T03:03:43.044Z,93.28
2019-02-21T03:04:46.173Z,93.11
2019-02-21T03:05:48.998Z,93.07
2019-02-21T03:06:51.875Z,92.93
2019-02-21T03:07:54.974Z,92.96
2019-02-21T03:08:58.053Z,92.96
2019-02-21T03:10:01.230Z,93.14
2019-02-21T03:11:04.332Z,93.14
2019-02-21T03:12:07.138Z,92.82
2019-02-21T03:13:09.999Z,92.46
2019-02-21T03:14:12.923Z,92.94
2019-02-21T03:15:16.181Z,92.18
2019-02-21T03:16:18.997Z,92.04
2019-02-21T03:17:23.926Z,91.88
2019-02-21T03:18:31.650Z,91.91
2019-02-21T03:19:35.504Z,91.79
2019-02-21T03:20:38.526Z,91.50
2019-02-21T03:21:42.278Z,91.63
2019-02-21T03:22:45.138Z,91.63
2019-02-21T03:23:48.424Z,91.43
2019-02-21T03:24:51.351Z,91.30
2019-02-21T03:25:54.278Z,91.38
2019-02-21T03:26:57.151Z,92.06
2019-02-21T03:28:00.050Z,91.48
2019-02-21T03:29:02.832Z,92.03
2019-02-21T03:30:06.048Z,92.26
2019-02-21T03:31:08.921Z,92.19
2019-02-21T03:32:11.687Z,92.45
2019-02-21T03:33:14.632Z,92.45
2019-02-21T03:34:17.455Z,92.33
2019-02-21T03:35:20.350Z,92.07
2019-02-21T03:36:23.419Z,92.07
2019-02-21T03:37:26.287Z,91.90
2019-02-21T03:38:29.105Z,91.46
2019-02-21T03:39:31.953Z,91.46
2019-02-21T03:40:34.786Z,91.64
2019-02-21T03:41:37.604Z,91.64
2019-02-21T03:42:40.675Z,91.45
2019-02-21T03:43:43.829Z,91.64
2019-02-21T03:44:46.802Z,91.84
2019-02-21T03:45:49.827Z,91.79
2019-02-21T03:46:52.685Z,90.98
2019-02-21T03:47:55.499Z,91.56
2019-02-21T03:48:58.612Z,91.25
2019-02-21T03:50:01.485Z,91.83
2019-02-21T03:51:04.290Z,90.99
2019-02-21T03:52:07.093Z,90.99
2019-02-21T03:53:11.628Z,90.49
2019-02-21T03:54:14.442Z,91.30
2019-02-21T03:55:17.519Z,90.99
2019-02-21T03:56:20.275Z,90.99
2019-02-21T03:57:23.087Z,90.56
2019-02-21T03:58:25.960Z,90.68
2019-02-21T03:59:28.736Z,90.16
2019-02-21T04:00:31.531Z,90.76
2019-02-21T04:01:34.625Z,90.11
2019-02-21T04:02:37.465Z,90.08
2019-02-21T04:03:42.069Z,90.19
2019-02-21T04:04:46.786Z,90.06
2019-02-21T04:05:49.579Z,90.24
2019-02-21T04:06:55.827Z,90.37
2019-02-21T04:08:01.709Z,90.44
2019-02-21T04:09:04.784Z,90.36
2019-02-21T04:10:08.772Z,89.90
2019-02-21T04:11:11.533Z,90.15
2019-02-21T04:12:14.322Z,89.98
2019-02-21T04:13:17.604Z,89.94
2019-02-21T04:14:23.836Z,90.03
2019-02-21T04:15:26.695Z,90.03
2019-02-21T04:16:29.500Z,89.84
2019-02-21T04:17:32.284Z,89.82
2019-02-21T04:18:35.161Z,89.82
2019-02-21T04:19:37.950Z,90.12
2019-02-21T04:20:41.054Z,90.66
2019-02-21T04:21:43.827Z,90.76
2019-02-21T04:22:46.640Z,90.14
2019-02-21T04:23:49.530Z,90.67
2019-02-21T04:24:52.402Z,90.71
2019-02-21T04:25:55.208Z,90.36
2019-02-21T04:26:58.528Z,90.83
2019-02-21T04:28:01.402Z,90.83
2019-02-21T04:29:04.255Z,90.93
2019-02-21T04:30:07.349Z,91.05
2019-02-21T04:31:10.132Z,90.76
2019-02-21T04:32:16.893Z,90.76
2019-02-21T04:33:20.381Z,91.05
2019-02-21T04:34:23.206Z,91.15
2019-02-21T04:35:26.082Z,91.00
2019-02-21T04:36:28.849Z,91.21
2019-02-21T04:37:31.662Z,91.21
2019-02-21T04:38:34.452Z,90.75
2019-02-21T04:39:37.528Z,90.65
2019-02-21T04:40:40.427Z,90.65
2019-02-21T04:41:43.762Z,90.75
2019-02-21T04:42:46.531Z,90.51
2019-02-21T04:43:49.350Z,90.37
2019-02-21T04:44:52.160Z,90.24
2019-02-21T04:45:55.259Z,90.24
2019-02-21T04:46:58.142Z,90.63
2019-02-21T04:48:00.934Z,90.10
2019-02-21T04:49:05.948Z,90.10
2019-02-21T04:50:08.713Z,90.05
2019-02-21T04:51:11.505Z,90.08
2019-02-21T04:52:14.622Z,90.53
2019-02-21T04:53:17.428Z,89.94
2019-02-21T04:54:20.243Z,89.98
2019-02-21T04:55:25.365Z,90.03
2019-02-21T04:56:28.157Z,90.04
2019-02-21T04:57:30.955Z,90.50
2019-02-21T04:58:34.035Z,89.82
2019-02-21T04:59:36.824Z,90.56
2019-02-21T05:00:39.662Z,90.35
2019-02-21T05:01:42.477Z,90.42
2019-02-21T05:02:45.319Z,90.42
2019-02-21T05:03:48.110Z,90.01
2019-02-21T05:04:51.189Z,90.56
2019-02-21T05:05:53.984Z,90.23
2019-02-21T05:06:57.810Z,90.23
2019-02-21T05:08:00.580Z,89.98
2019-02-21T05:09:04.211Z,90.32
2019-02-21T05:10:06.975Z,90.66
2019-02-21T05:11:10.060Z,91.22
2019-02-21T05:12:14.032Z,90.37
2019-02-21T05:13:16.839Z,90.43
2019-02-21T05:14:19.705Z,90.39
2019-02-21T05:15:22.488Z,90.39
2019-02-21T05:16:25.267Z,90.96
2019-02-21T05:17:29.610Z,90.21
2019-02-21T05:18:32.411Z,90.69
2019-02-21T05:19:35.270Z,90.37
2019-02-21T05:20:38.075Z,90.09
2019-02-21T05:21:40.938Z,90.40
2019-02-21T05:22:43.716Z,90.37
2019-02-21T05:23:46.829Z,90.49
2019-02-21T05:24:49.625Z,90.50
2019-02-21T05:25:54.236Z,90.95
2019-02-21T05:27:01.735Z,90.71
2019-02-21T05:28:41.195Z,90.71
2019-02-21T05:29:43.741Z,90.62
2019-02-21T05:30:47.578Z,90.23
2019-02-21T05:32:21.521Z,90.23
2019-02-21T05:33:41.482Z,90.23
2019-02-21T05:34:59.908Z,90.24
2019-02-21T05:36:21.337Z,89.89
2019-02-21T05:37:41.521Z,89.53
2019-02-21T05:39:00.924Z,89.81
2019-02-21T05:40:28.847Z,90.02
2019-02-21T05:41:44.450Z,89.91
2019-02-21T05:43:21.200Z,89.72
2019-02-21T05:44:40.908Z,90.62
2019-02-21T05:46:15.471Z,89.72
2019-02-21T05:47:35.684Z,89.72
2019-02-21T05:49:00.221Z,90.00
2019-02-21T05:50:19.508Z,90.15
2019-02-21T05:51:44.279Z,90.15
2019-02-21T05:53:02.217Z,90.15
2019-02-21T05:54:26.490Z,89.86
2019-02-21T05:55:37.447Z,90.37
2019-02-21T05:57:04.921Z,90.31
2019-02-21T05:58:32.275Z,90.40
2019-02-21T05:59:52.203Z,90.40
2019-02-21T06:01:07.949Z,89.95
2019-02-21T06:02:29.496Z,89.95
2019-02-21T06:03:46.390Z,89.85
2019-02-21T06:05:01.571Z,89.95
2019-02-21T06:06:22.998Z,89.75
2019-02-21T06:07:42.957Z,89.75
2019-02-21T06:09:08.102Z,89.48
2019-02-21T06:10:32.831Z,89.34
2019-02-21T06:12:03.192Z,89.06
2019-02-21T06:13:17.788Z,89.86
2019-02-21T06:14:36.368Z,89.31
2019-02-21T06:16:10.125Z,89.31
2019-02-21T06:17:34.049Z,89.25
2019-02-21T06:18:55.958Z,89.25
2019-02-21T06:20:33.756Z,89.43
2019-02-21T06:22:10.002Z,89.43
2019-02-21T06:23:27.288Z,89.28
2019-02-21T06:24:35.232Z,89.28
2019-02-21T06:25:51.137Z,89.20
2019-02-21T06:27:06.106Z,89.83
2019-02-21T06:28:12.599Z,89.79
2019-02-21T06:29:46.286Z,89.79
2019-02-21T06:43:48.773Z,89.80
2019-02-21T06:44:51.617Z,89.53
2019-02-21T06:45:54.489Z,90.00
2019-02-21T06:46:57.779Z,89.99
2019-02-21T06:48:00.673Z,89.99
2019-02-21T06:49:05.165Z,89.53
2019-02-21T06:50:10.345Z,89.34
2019-02-21T06:51:13.206Z,89.53
2019-02-21T06:52:16.051Z,89.41
2019-02-21T06:53:18.883Z,88.67
2019-02-21T06:54:22.537Z,89.08
2019-02-21T06:55:28.291Z,89.36
2019-02-21T06:56:31.172Z,89.44
2019-02-21T06:57:36.446Z,90.00
2019-02-21T06:58:41.976Z,89.96
2019-02-21T06:59:46.053Z,90.02
2019-02-21T07:00:49.998Z,89.82
2019-02-21T07:01:52.824Z,89.25
2019-02-21T07:02:55.649Z,89.25
2019-02-21T07:03:58.856Z,89.24
2019-02-21T07:05:01.777Z,89.77
2019-02-21T07:06:05.021Z,89.32
2019-02-21T07:07:07.940Z,88.89
2019-02-21T07:08:10.859Z,89.36
2019-02-21T07:09:13.625Z,89.36
2019-02-21T07:10:16.416Z,89.47
2019-02-21T07:11:19.306Z,89.17
2019-02-21T07:12:31.471Z,89.58
2019-02-21T07:13:34.905Z,89.04
2019-02-21T07:14:37.721Z,89.04
2019-02-21T07:15:40.567Z,88.87
2019-02-21T07:16:43.417Z,89.28
2019-02-21T07:17:49.601Z,89.12
2019-02-21T07:18:52.814Z,88.59
2019-02-21T07:19:55.663Z,89.08
2019-02-21T07:20:58.462Z,88.07
2019-02-21T07:22:01.277Z,88.25
2019-02-21T07:23:04.094Z,88.05
2019-02-21T07:24:06.962Z,88.04
2019-02-21T07:25:42.152Z,88.39
2019-02-21T07:26:46.738Z,88.41
2019-02-21T07:27:54.527Z,88.35
2019-02-21T07:28:58.366Z,88.17
2019-02-21T07:30:01.332Z,87.93
2019-02-21T07:31:04.430Z,87.93
2019-02-21T07:32:07.316Z,86.90
2019-02-21T07:33:10.261Z,86.90
2019-02-21T07:34:13.083Z,86.55
2019-02-21T07:35:15.871Z,87.04
2019-02-21T07:36:21.166Z,86.89
2019-02-21T07:37:24.355Z,87.09
2019-02-21T07:38:29.847Z,86.63
2019-02-21T07:39:35.977Z,86.78
2019-02-21T07:40:37.103Z,86.80
2019-02-21T07:41:41.684Z,86.66
2019-02-21T07:42:48.281Z,87.22
2019-02-21T07:43:51.971Z,86.95
2019-02-21T07:44:54.931Z,87.10
2019-02-21T07:45:57.829Z,86.78
2019-02-21T07:47:00.726Z,86.50
2019-02-21T07:48:05.135Z,86.81
2019-02-21T07:49:11.287Z,86.81
2019-02-21T07:50:16.930Z,87.05
2019-02-21T07:51:19.783Z,87.05
2019-02-21T07:52:22.662Z,87.05
2019-02-21T07:53:25.483Z,87.05
2019-02-21T07:54:28.343Z,86.75
2019-02-21T07:55:33.924Z,86.78
2019-02-21T07:56:42.028Z,86.49
2019-02-21T07:57:42.084Z,86.34
2019-02-21T07:58:44.963Z,86.47
2019-02-21T07:59:47.755Z,85.89
2019-02-21T08:00:50.630Z,86.11
2019-02-21T08:01:53.417Z,86.42
2019-02-21T08:02:57.937Z,86.42
2019-02-21T08:04:00.726Z,86.08
2019-02-21T08:05:05.522Z,86.17
2019-02-21T08:06:08.305Z,86.07
2019-02-21T08:07:11.414Z,86.41
2019-02-21T08:08:16.224Z,85.68
2019-02-21T08:09:20.399Z,85.60
2019-02-21T08:10:33.077Z,86.15
2019-02-21T08:11:28.133Z,85.81
2019-02-21T08:12:30.948Z,85.02
2019-02-21T08:13:34.096Z,85.02
2019-02-21T08:14:38.790Z,85.19
2019-02-21T08:15:41.623Z,84.84
2019-02-21T08:16:45.856Z,84.84
2019-02-21T08:17:49.697Z,84.89
2019-02-21T08:18:52.941Z,85.21
2019-02-21T08:20:07.282Z,84.98
2019-02-21T08:21:00.286Z,84.62
2019-02-21T08:22:03.215Z,84.94
2019-02-21T08:23:06.097Z,85.00
2019-02-21T08:24:09.509Z,85.00
2019-02-21T08:25:12.561Z,85.55
2019-02-21T08:26:15.813Z,85.21
2019-02-21T08:27:20.932Z,85.21
2019-02-21T08:28:24.266Z,85.06
2019-02-21T08:29:31.529Z,84.93
2019-02-21T08:30:34.429Z,85.09
2019-02-21T08:31:37.243Z,84.83
2019-02-21T08:32:57.311Z,84.83
2019-02-21T08:34:07.868Z,84.76
2019-02-21T08:35:12.012Z,85.09
2019-02-21T08:36:17.713Z,85.38
2019-02-21T08:37:20.530Z,85.38
2019-02-21T08:38:26.396Z,86.03
2019-02-21T08:39:34.314Z,86.08
2019-02-21T08:40:37.234Z,86.08
2019-02-21T08:41:40.444Z,85.93
2019-02-21T08:42:46.248Z,85.78
2019-02-21T08:43:51.334Z,85.89
2019-02-21T08:44:55.258Z,85.89
2019-02-21T08:45:58.083Z,85.53
2019-02-21T08:47:01.063Z,85.55
2019-02-21T08:48:05.256Z,85.13
2019-02-21T08:49:08.511Z,85.62
2019-02-21T08:50:14.329Z,85.84
2019-02-21T08:51:18.408Z,85.84
2019-02-21T08:52:26.415Z,85.06
2019-02-21T08:53:31.783Z,84.72
2019-02-21T08:54:36.728Z,85.16
2019-02-21T08:55:41.960Z,85.16
2019-02-21T08:56:44.801Z,83.91
2019-02-21T08:57:47.752Z,82.94
2019-02-21T08:58:50.850Z,100.00
2019-02-21T08:59:54.494Z,0.00
2019-02-21T09:01:01.738Z,9.19
2019-02-21T09:02:06.883Z,81.08
2019-02-21T09:03:09.740Z,80.79
2019-02-21T09:04:26.340Z,81.76
2019-02-21T09:05:17.161Z,81.76
2019-02-21T09:06:20.536Z,24.51
2019-02-21T09:07:27.783Z,0.00
2019-02-21T09:08:37.869Z,9.21
2019-02-21T09:09:40.798Z,79.82
2019-02-21T09:10:43.564Z,79.82
2019-02-21T09:11:46.521Z,79.91
2019-02-21T09:12:49.352Z,100.00
2019-02-21T09:13:56.013Z,9.40
2019-02-21T09:14:58.575Z,100.00
2019-02-21T09:16:01.375Z,78.53
2019-02-21T09:17:04.601Z,77.01
2019-02-21T09:18:11.506Z,77.67
2019-02-21T09:19:17.638Z,77.74
2019-02-21T09:20:20.525Z,77.74
2019-02-21T09:21:24.397Z,75.96
2019-02-21T09:22:27.227Z,75.60
2019-02-21T09:23:30.040Z,76.09
2019-02-21T09:24:39.982Z,76.09
2019-02-21T09:25:37.358Z,73.70
2019-02-21T09:26:40.163Z,73.70
2019-02-21T09:27:42.998Z,72.20
2019-02-21T09:28:45.802Z,72.20
2019-02-21T09:29:52.484Z,69.47
2019-02-21T09:30:56.147Z,68.26
2019-02-21T09:32:01.332Z,68.26
2019-02-21T09:33:17.009Z,66.51
2019-02-21T09:34:20.782Z,66.51
2019-02-21T09:35:16.258Z,64.19
2019-02-21T09:36:19.807Z,63.98
2019-02-21T09:37:29.894Z,63.80
2019-02-21T09:38:34.860Z,64.98
2019-02-21T09:39:37.799Z,65.87
2019-02-21T09:40:42.671Z,65.87
2019-02-21T09:41:48.229Z,66.58
2019-02-21T09:42:50.206Z,67.19
2019-02-21T09:43:53.466Z,66.51
2019-02-21T09:44:56.315Z,66.51
2019-02-21T09:45:59.184Z,66.82
2019-02-21T09:47:02.143Z,67.04
2019-02-21T09:48:04.970Z,67.13
2019-02-21T09:49:08.041Z,67.72
2019-02-21T09:50:11.143Z,67.79
2019-02-21T09:51:13.976Z,68.11
2019-02-21T09:52:16.967Z,69.08
2019-02-21T09:53:20.207Z,70.46
2019-02-21T09:54:24.282Z,70.99
2019-02-21T09:55:29.629Z,71.59
2019-02-21T09:56:32.465Z,71.85
2019-02-21T09:57:35.363Z,71.92
2019-02-21T09:58:38.286Z,71.92
2019-02-21T09:59:43.707Z,72.25
2019-02-21T10:00:47.874Z,72.46
2019-02-21T10:01:53.184Z,72.79
2019-02-21T10:02:56.795Z,72.72
2019-02-21T10:04:00.290Z,73.23
2019-02-21T10:05:05.366Z,73.30
2019-02-21T10:06:08.348Z,73.81
2019-02-21T10:07:20.844Z,74.10
2019-02-21T10:08:27.451Z,74.10
2019-02-21T10:09:31.129Z,74.34
2019-02-21T10:10:33.935Z,74.26
2019-02-21T10:11:36.770Z,74.26
2019-02-21T10:12:39.725Z,75.04
2019-02-21T10:13:43.947Z,75.21
2019-02-21T10:14:46.768Z,75.29
2019-02-21T10:15:49.977Z,76.10
2019-02-21T10:16:53.359Z,76.10
2019-02-21T10:17:56.380Z,76.04
2019-02-21T10:18:59.215Z,75.90
2019-02-21T10:20:04.254Z,76.13
2019-02-21T10:21:09.699Z,76.13
2019-02-21T10:22:16.011Z,76.86
2019-02-21T10:23:24.402Z,76.44
2019-02-21T10:24:27.335Z,76.85
2019-02-21T10:25:30.159Z,77.00
2019-02-21T10:26:36.668Z,77.00
2019-02-21T10:27:41.684Z,76.58
2019-02-21T10:28:45.308Z,76.39
2019-02-21T10:29:50.902Z,76.39
2019-02-21T10:30:53.547Z,75.49
2019-02-21T10:31:56.359Z,75.58
2019-02-21T10:32:59.225Z,75.33
2019-02-21T10:34:08.472Z,75.58
2019-02-21T10:35:14.465Z,75.78
2019-02-21T10:36:17.358Z,75.30
2019-02-21T10:37:20.235Z,75.47
2019-02-21T10:38:25.810Z,75.47
2019-02-21T10:39:28.586Z,75.63
2019-02-21T10:40:35.837Z,75.63
2019-02-21T10:41:38.690Z,75.83
2019-02-21T10:42:41.513Z,76.19
2019-02-21T10:43:44.351Z,76.19
2019-02-21T10:44:47.288Z,76.46
2019-02-21T10:45:50.188Z,76.06
2019-02-21T10:46:53.008Z,75.96
2019-02-21T10:47:55.906Z,75.96
2019-02-21T10:49:04.285Z,75.03
2019-02-21T10:50:07.141Z,73.04
2019-02-21T10:51:10.018Z,72.92
2019-02-21T10:52:12.859Z,72.06
2019-02-21T10:53:16.154Z,71.21
2019-02-21T10:54:19.080Z,71.54
2019-02-21T10:55:25.168Z,71.54
2019-02-21T10:56:28.417Z,71.41
2019-02-21T10:57:33.774Z,71.95
2019-02-21T10:58:36.705Z,70.87
2019-02-21T10:59:46.786Z,71.16
2019-02-21T11:00:44.816Z,72.01
2019-02-21T11:01:47.664Z,72.25
2019-02-21T11:02:50.456Z,72.67
2019-02-21T11:03:58.899Z,72.67
2019-02-21T11:05:01.848Z,72.98
2019-02-21T11:06:05.198Z,72.41
2019-02-21T11:07:07.970Z,71.40
2019-02-21T11:08:10.846Z,71.17
2019-02-21T11:09:17.698Z,70.93
2019-02-21T11:10:20.958Z,71.13
2019-02-21T11:11:26.556Z,71.25
2019-02-21T11:12:29.978Z,70.68
2019-02-21T11:13:32.817Z,70.07
2019-02-21T11:14:47.030Z,71.17
2019-02-21T11:15:42.180Z,71.17
2019-02-21T11:16:45.028Z,70.58
2019-02-21T11:17:47.941Z,69.91
2019-02-21T11:18:51.366Z,70.05
2019-02-21T11:19:56.556Z,70.05
2019-02-21T11:20:59.831Z,69.49
2019-02-21T11:22:02.637Z,69.49
2019-02-21T11:23:07.084Z,70.12
2019-02-21T11:24:09.927Z,70.68
2019-02-21T11:25:13.106Z,70.68
2019-02-21T11:26:17.722Z,71.10
2019-02-21T11:27:20.559Z,71.05
2019-02-21T11:28:26.373Z,71.29
2019-02-21T11:29:36.439Z,72.40
2019-02-21T11:43:04.581Z,73.60
2019-02-21T11:44:11.256Z,73.64
2019-02-21T11:45:19.616Z,73.53
2019-02-21T11:46:24.170Z,73.39
2019-02-21T11:47:27.162Z,73.39
2019-02-21T11:48:30.054Z,73.46
2019-02-21T11:49:34.055Z,73.20
2019-02-21T11:50:39.551Z,73.64
2019-02-21T11:51:42.500Z,73.26
2019-02-21T11:52:45.520Z,73.26
2019-02-21T11:53:48.669Z,73.64
2019-02-21T11:54:53.507Z,73.37
2019-02-21T11:56:15.779Z,73.67
2019-02-21T11:57:21.193Z,73.47
2019-02-21T11:58:24.078Z,73.96
2019-02-21T11:59:32.131Z,74.42
2019-02-21T12:00:35.207Z,74.98
2019-02-21T12:01:39.736Z,74.63
2019-02-21T12:02:42.719Z,74.63
2019-02-21T12:03:47.863Z,74.71
2019-02-21T12:04:50.761Z,74.75
2019-02-21T12:05:54.866Z,74.25
2019-02-21T12:06:58.004Z,74.70
2019-02-21T12:08:00.820Z,74.70
2019-02-21T12:09:09.132Z,75.03
2019-02-21T12:10:09.359Z,75.13
2019-02-21T12:11:12.616Z,75.15
2019-02-21T12:12:17.012Z,74.76
2019-02-21T12:13:21.633Z,74.76
2019-02-21T12:14:24.788Z,74.68
2019-02-21T12:15:31.193Z,75.08
2019-02-21T12:16:37.816Z,75.11
2019-02-21T12:17:42.822Z,74.02
2019-02-21T12:18:46.896Z,74.50
2019-02-21T12:20:06.289Z,74.05
2019-02-21T12:21:06.897Z,73.31
2019-02-21T12:22:09.703Z,73.31
2019-02-21T12:23:12.561Z,72.81
2019-02-21T12:24:19.489Z,72.81
2019-02-21T12:25:26.068Z,74.13
2019-02-21T12:26:29.254Z,74.31
2019-02-21T12:27:38.205Z,74.61
2019-02-21T12:28:45.997Z,74.49
2019-02-21T12:29:48.927Z,74.07
2019-02-21T12:30:54.686Z,74.58
2019-02-21T12:31:57.523Z,74.39
2019-02-21T12:33:00.621Z,74.17
2019-02-21T12:34:07.033Z,74.17
2019-02-21T12:35:09.878Z,74.48
2019-02-21T12:36:12.743Z,75.06
2019-02-21T12:37:17.889Z,75.06
2019-02-21T12:38:22.937Z,74.04
2019-02-21T12:39:26.199Z,74.00
2019-02-21T12:40:29.032Z,73.33
2019-02-21T12:41:34.794Z,73.86
2019-02-21T12:42:40.440Z,74.15
2019-02-21T12:43:43.272Z,73.47
2019-02-21T12:44:47.868Z,73.47
2019-02-21T12:45:54.457Z,74.37
2019-02-21T12:47:06.319Z,73.22
2019-02-21T12:48:09.435Z,73.07
2019-02-21T12:49:15.378Z,72.97
2019-02-21T12:50:18.155Z,72.95
2019-02-21T12:51:21.008Z,72.95
2019-02-21T12:52:25.747Z,72.02
2019-02-21T12:53:30.058Z,72.02
2019-02-21T12:54:32.997Z,72.08
2019-02-21T12:55:35.934Z,72.01
2019-02-21T12:56:41.235Z,72.28
2019-02-21T12:57:45.896Z,72.28
2019-02-21T12:58:50.790Z,72.00
2019-02-21T12:59:53.611Z,72.75
2019-02-21T13:00:56.539Z,73.70
2019-02-21T13:01:59.304Z,73.71
2019-02-21T13:03:02.206Z,73.35
2019-02-21T13:04:07.973Z,73.64
2019-02-21T13:05:11.783Z,72.65
2019-02-21T13:06:14.684Z,72.65
2019-02-21T13:07:18.503Z,74.22
2019-02-21T13:08:25.940Z,74.22
2019-02-21T13:09:28.742Z,73.42
2019-02-21T13:10:35.057Z,73.61
2019-02-21T13:11:40.301Z,73.61
2019-02-21T13:12:43.396Z,73.36
2019-02-21T13:13:46.241Z,72.95
2019-02-21T13:14:51.168Z,72.95
2019-02-21T13:15:57.909Z,73.20
2019-02-21T13:17:04.485Z,73.32
2019-02-21T13:18:15.312Z,72.82
2019-02-21T13:19:11.793Z,73.37
2019-02-21T13:20:14.667Z,73.74
2019-02-21T13:21:17.551Z,73.17
2019-02-21T13:22:20.479Z,73.32
2019-02-21T13:23:23.268Z,73.32
2019-02-21T13:24:29.069Z,72.84
2019-02-21T13:25:31.934Z,73.25
2019-02-21T13:26:34.778Z,73.46
2019-02-21T13:27:37.726Z,73.46
2019-02-21T13:28:40.648Z,73.12
2019-02-21T13:29:48.080Z,72.86
2019-02-21T13:30:48.030Z,72.86
2019-02-21T13:31:50.888Z,72.98
2019-02-21T13:35:06.752Z,73.19
2019-02-21T13:36:09.537Z,72.78
2019-02-21T13:37:12.382Z,72.41
2019-02-21T13:38:21.176Z,72.41
2019-02-21T13:39:25.580Z,71.65
2019-02-21T13:40:38.163Z,71.65
2019-02-21T13:41:42.774Z,71.82
2019-02-21T13:42:48.235Z,71.82
2019-02-21T13:43:53.859Z,71.76
2019-02-21T13:44:56.687Z,71.35
2019-02-21T13:46:03.287Z,71.58
2019-02-21T13:47:08.097Z,71.80
2019-02-21T13:48:13.700Z,71.80
2019-02-21T13:49:17.459Z,70.74
2019-02-21T13:50:20.267Z,70.97
2019-02-21T13:51:25.693Z,71.60
2019-02-21T13:52:31.493Z,71.02
2019-02-21T13:53:34.671Z,70.78
2019-02-21T13:54:37.963Z,70.65
2019-02-21T13:55:40.790Z,70.60
2019-02-21T13:56:45.299Z,70.40
2019-02-21T13:57:55.403Z,70.29
2019-02-21T13:58:58.291Z,70.29
2019-02-21T14:00:01.387Z,70.37
2019-02-21T14:01:04.228Z,70.31
2019-02-21T14:02:07.053Z,70.49
2019-02-21T14:03:09.919Z,70.28
2019-02-21T14:04:12.827Z,70.59
2019-02-21T14:05:16.055Z,70.59
2019-02-21T14:06:19.514Z,70.37
2019-02-21T14:07:22.444Z,70.16
2019-02-21T14:08:28.116Z,69.35
2019-02-21T14:09:31.955Z,69.59
2019-02-21T14:10:34.765Z,68.57
2019-02-21T14:11:39.851Z,68.57
2019-02-21T14:12:42.426Z,69.00
2019-02-21T14:13:45.280Z,68.54
2019-02-21T14:14:50.417Z,68.78
2019-02-21T14:15:59.407Z,68.90
2019-02-21T14:17:05.981Z,69.21
2019-02-21T14:18:14.860Z,68.20
2019-02-21T14:19:17.715Z,68.62
2019-02-21T14:20:20.765Z,68.47
2019-02-21T14:21:23.627Z,68.74
2019-02-21T14:22:28.028Z,68.92
2019-02-21T14:23:32.346Z,68.92
2019-02-21T14:24:37.243Z,68.66